createdAt,value
2023-10-09T00:02:15.164Z,15.00
2023-10-09T00:04:46.782Z,15.00
2023-10-09T00:07:18.366Z,15.10
2023-10-09T00:09:48.238Z,15.10
2023-10-09T00:12:23.837Z,15.00
2023-10-09T00:14:51.810Z,15.00
2023-10-09T00:17:22.606Z,15.00
2023-10-09T00:20:00.786Z,15.00
2023-10-09T00:22:29.681Z,14.90
2023-10-09T00:25:18.333Z,15.00
2023-10-09T00:27:47.124Z,15.00
2023-10-09T00:30:31.052Z,14.90
2023-10-09T00:33:02.532Z,14.90
2023-10-09T00:35:44.848Z,14.90
2023-10-09T00:38:23.634Z,14.90
2023-10-09T00:41:10.131Z,14.90
2023-10-09T00:43:38.369Z,14.80
2023-10-09T00:46:26.708Z,14.80
2023-10-09T00:49:03.115Z,14.80
2023-10-09T00:51:36.746Z,14.90
2023-10-09T00:54:15.550Z,15.00
2023-10-09T00:56:53.245Z,15.00
2023-10-09T00:59:23.557Z,15.00
2023-10-09T01:02:00.475Z,15.10
2023-10-09T01:04:29.548Z,15.10
2023-10-09T01:07:29.590Z,15.00
2023-10-09T01:09:56.899Z,15.10
2023-10-09T01:12:23.906Z,15.00
2023-10-09T01:14:56.122Z,15.10
2023-10-09T01:17:37.556Z,15.10
2023-10-09T01:20:06.303Z,15.00
2023-10-09T01:22:33.174Z,15.10
2023-10-09T01:24:59.995Z,15.00
2023-10-09T01:27:27.023Z,15.10
2023-10-09T01:29:54.002Z,15.10
2023-10-09T01:32:21.468Z,15.10
2023-10-09T01:34:51.900Z,15.10
2023-10-09T01:37:24.382Z,15.10
2023-10-09T01:39:53.079Z,15.10
2023-10-09T01:42:42.049Z,15.10
2023-10-09T01:45:12.635Z,15.10
2023-10-09T01:47:39.771Z,15.10
2023-10-09T01:50:12.410Z,15.10
2023-10-09T01:52:39.849Z,15.10
2023-10-09T01:55:10.613Z,15.10
2023-10-09T01:57:40.649Z,15.10
2023-10-09T02:00:08.935Z,15.10
2023-10-09T02:02:39.617Z,15.10
2023-10-09T02:05:10.466Z,15.10
2023-10-09T02:07:53.711Z,15.20
2023-10-09T02:10:26.580Z,15.20
2023-10-09T02:13:11.353Z,15.20
2023-10-09T02:15:46.814Z,15.20
2023-10-09T02:18:19.406Z,15.20
2023-10-09T02:20:47.047Z,15.20
2023-10-09T02:23:25.387Z,15.20
2023-10-09T02:25:57.766Z,15.20
2023-10-09T02:28:24.794Z,15.20
2023-10-09T02:30:52.852Z,15.20
2023-10-09T02:33:29.125Z,15.30
2023-10-09T02:36:00.675Z,15.30
2023-10-09T02:38:28.091Z,15.30
2023-10-09T02:41:04.008Z,15.30
2023-10-09T02:43:50.755Z,15.20
2023-10-09T02:46:21.227Z,15.20
2023-10-09T02:48:52.032Z,15.20
2023-10-09T02:51:32.215Z,15.30
2023-10-09T02:54:28.475Z,15.30
2023-10-09T02:57:07.231Z,15.30
2023-10-09T02:59:35.715Z,15.30
2023-10-09T03:02:02.561Z,15.30
2023-10-09T03:04:32.444Z,15.40
2023-10-09T03:06:59.616Z,15.40
2023-10-09T03:09:28.232Z,15.40
2023-10-09T03:12:04.242Z,15.40
2023-10-09T03:14:32.856Z,15.40
2023-10-09T03:17:00.454Z,15.40
2023-10-09T03:19:29.478Z,15.50
2023-10-09T03:22:00.155Z,15.40
2023-10-09T03:24:31.988Z,15.40
2023-10-09T03:26:59.203Z,15.40
2023-10-09T03:29:28.715Z,15.50
2023-10-09T03:31:57.823Z,15.40
2023-10-09T03:34:29.046Z,15.50
2023-10-09T03:37:05.188Z,15.50
2023-10-09T03:39:48.175Z,15.60
2023-10-09T03:42:20.709Z,15.50
2023-10-09T03:44:54.064Z,15.50
2023-10-09T03:47:24.370Z,15.50
2023-10-09T03:49:52.710Z,15.50
2023-10-09T03:52:20.368Z,15.60
2023-10-09T03:54:47.811Z,15.60
2023-10-09T03:57:20.702Z,15.60
2023-10-09T03:59:48.169Z,15.60
2023-10-09T04:02:18.278Z,15.60
2023-10-09T04:04:49.291Z,15.70
2023-10-09T04:07:17.940Z,15.80
2023-10-09T04:09:46.317Z,15.80
2023-10-09T04:12:13.244Z,15.90
2023-10-09T04:15:02.252Z,15.80
2023-10-09T04:17:35.790Z,15.80
2023-10-09T04:20:19.830Z,15.80
2023-10-09T04:23:05.869Z,15.80
2023-10-09T04:25:43.273Z,15.80
2023-10-09T04:28:13.158Z,15.80
2023-10-09T04:31:00.842Z,15.80
2023-10-09T04:33:33.893Z,15.80
2023-10-09T04:36:17.732Z,15.80
2023-10-09T04:39:08.388Z,15.80
2023-10-09T04:41:53.146Z,15.80
2023-10-09T04:44:23.899Z,15.80
2023-10-09T04:47:12.967Z,15.90
2023-10-09T04:50:03.305Z,15.80
2023-10-09T04:52:31.043Z,15.80
2023-10-09T04:55:10.902Z,15.80
2023-10-09T04:57:42.635Z,15.80
2023-10-09T05:00:28.549Z,15.80
2023-10-09T05:02:58.814Z,15.80
2023-10-09T05:05:49.694Z,15.90
2023-10-09T05:08:29.825Z,15.80
2023-10-09T05:11:04.679Z,15.90
2023-10-09T05:13:39.416Z,15.90
2023-10-09T05:16:17.824Z,15.90
2023-10-09T05:18:46.829Z,15.90
2023-10-09T05:21:13.834Z,15.90
2023-10-09T05:24:10.370Z,16.00
2023-10-09T05:26:50.538Z,16.00
2023-10-09T05:29:34.393Z,15.90
2023-10-09T05:32:15.051Z,15.90
2023-10-09T05:35:01.367Z,15.90
2023-10-09T05:37:44.149Z,16.00
2023-10-09T05:40:17.383Z,15.90
2023-10-09T05:42:45.169Z,16.00
2023-10-09T05:45:20.335Z,16.00
2023-10-09T05:47:57.384Z,16.00
2023-10-09T05:50:26.010Z,16.00
2023-10-09T05:53:10.508Z,16.00
2023-10-09T05:55:56.410Z,16.10
2023-10-09T05:58:46.480Z,16.10
2023-10-09T06:01:32.350Z,16.10
2023-10-09T06:04:15.953Z,16.10
2023-10-09T06:06:47.029Z,16.20
2023-10-09T06:09:15.637Z,16.20
2023-10-09T06:11:51.147Z,16.20
2023-10-09T06:14:30.632Z,16.20
2023-10-09T06:16:58.910Z,16.20
2023-10-09T06:19:27.846Z,16.20
2023-10-09T06:22:00.325Z,16.30
2023-10-09T06:24:34.740Z,16.30
2023-10-09T06:27:01.729Z,16.20
2023-10-09T06:29:46.616Z,16.20
2023-10-09T06:32:20.366Z,16.20
2023-10-09T06:34:53.086Z,16.20
2023-10-09T06:37:26.037Z,16.30
2023-10-09T06:39:56.644Z,16.30
2023-10-09T06:42:39.883Z,16.30
2023-10-09T06:45:15.742Z,16.30
2023-10-09T06:48:08.879Z,16.30
2023-10-09T06:50:55.147Z,16.30
2023-10-09T06:53:27.509Z,16.30
2023-10-09T06:56:06.242Z,16.30
2023-10-09T06:58:43.097Z,16.40
2023-10-09T07:01:28.868Z,16.40
2023-10-09T07:04:16.484Z,16.40
2023-10-09T07:06:43.656Z,16.50
2023-10-09T07:09:10.592Z,16.50
2023-10-09T07:11:42.024Z,16.50
2023-10-09T07:14:29.944Z,16.50
2023-10-09T07:17:25.762Z,16.60
2023-10-09T07:19:57.318Z,16.60
2023-10-09T07:22:24.593Z,16.60
2023-10-09T07:25:00.379Z,16.60
2023-10-09T07:27:47.961Z,16.70
2023-10-09T07:30:32.204Z,16.70
2023-10-09T07:33:13.711Z,16.70
2023-10-09T07:35:45.995Z,16.80
2023-10-09T07:38:20.545Z,16.80
2023-10-09T07:41:17.715Z,16.80
2023-10-09T07:43:44.585Z,16.90
2023-10-09T07:46:31.119Z,16.90
2023-10-09T07:49:01.962Z,16.90
2023-10-09T07:51:32.303Z,17.00
2023-10-09T07:54:10.117Z,17.00
2023-10-09T07:56:46.913Z,17.00
2023-10-09T07:59:19.369Z,17.00
2023-10-09T08:01:54.014Z,17.00
2023-10-09T08:04:49.217Z,17.10
2023-10-09T08:08:03.481Z,17.20
2023-10-09T08:10:22.433Z,17.20
2023-10-09T08:12:52.138Z,17.30
2023-10-09T08:15:19.760Z,17.30
2023-10-09T08:18:04.881Z,17.30
2023-10-09T08:20:51.486Z,17.30
2023-10-09T08:23:30.853Z,17.40
2023-10-09T08:26:14.402Z,17.40
2023-10-09T08:28:46.571Z,17.50
2023-10-09T08:31:34.048Z,17.50
2023-10-09T08:36:38.643Z,17.50
2023-10-09T08:39:18.530Z,17.60
2023-10-09T08:41:45.435Z,17.60
2023-10-09T08:44:16.397Z,17.70
2023-10-09T08:46:44.164Z,17.60
2023-10-09T08:49:11.822Z,17.70
2023-10-09T08:51:39.288Z,17.80
2023-10-09T08:54:12.709Z,17.80
2023-10-09T08:56:50.528Z,17.80
2023-10-09T08:59:22.132Z,17.90
2023-10-09T09:01:50.814Z,18.00
2023-10-09T09:04:41.231Z,18.00
2023-10-09T09:07:31.022Z,18.10
2023-10-09T09:09:58.924Z,18.10
2023-10-09T09:12:25.968Z,18.20
2023-10-09T09:14:53.803Z,18.20
2023-10-09T09:17:31.884Z,18.30
2023-10-09T09:19:59.836Z,18.30
2023-10-09T09:22:27.781Z,18.40
2023-10-09T09:25:10.566Z,18.40
2023-10-09T09:27:53.856Z,18.40
2023-10-09T09:30:35.211Z,18.50
2023-10-09T09:33:21.854Z,18.60
2023-10-09T09:35:59.273Z,18.60
2023-10-09T09:38:30.121Z,18.70
2023-10-09T09:40:58.200Z,18.80
2023-10-09T09:43:27.213Z,18.90
2023-10-09T09:45:58.805Z,18.90
2023-10-09T09:48:27.012Z,18.90
2023-10-09T09:50:55.367Z,19.00
2023-10-09T09:53:24.341Z,19.00
2023-10-09T09:55:59.939Z,19.10
2023-10-09T09:58:43.651Z,19.00
2023-10-09T10:01:26.442Z,19.10
2023-10-09T10:04:02.361Z,19.10
2023-10-09T10:06:33.381Z,19.20
2023-10-09T10:09:00.341Z,19.20
2023-10-09T10:11:47.728Z,19.30
2023-10-09T10:14:30.115Z,19.30
2023-10-09T10:17:22.382Z,19.30
2023-10-09T10:20:01.991Z,19.40
2023-10-09T10:22:31.280Z,19.40
2023-10-09T10:24:59.021Z,19.40
2023-10-09T10:27:27.818Z,19.50
2023-10-09T10:30:14.113Z,19.60
2023-10-09T10:32:53.477Z,19.50
2023-10-09T10:35:39.398Z,19.50
2023-10-09T10:38:33.878Z,19.50
2023-10-09T10:41:23.741Z,19.60
2023-10-09T10:43:54.057Z,19.60
2023-10-09T10:46:26.173Z,19.70
2023-10-09T10:49:12.419Z,19.70
2023-10-09T10:51:39.913Z,19.80
2023-10-09T10:54:27.132Z,19.80
2023-10-09T10:56:54.017Z,19.90
2023-10-09T10:59:24.230Z,20.00
2023-10-09T11:01:58.871Z,20.00
2023-10-09T11:04:33.902Z,20.10
2023-10-09T11:07:26.224Z,20.10
2023-10-09T11:10:07.703Z,20.20
2023-10-09T11:12:53.777Z,20.30
2023-10-09T11:15:47.803Z,20.40
2023-10-09T11:18:26.181Z,20.40
2023-10-09T11:20:59.856Z,20.50
2023-10-09T11:23:35.967Z,20.60
2023-10-09T11:26:23.749Z,20.70
2023-10-09T11:29:36.452Z,20.70
2023-10-09T11:32:10.457Z,20.70
2023-10-09T11:34:38.646Z,20.70
2023-10-09T11:37:34.026Z,20.60
2023-10-09T11:40:02.298Z,20.70
2023-10-09T11:42:39.645Z,20.70
2023-10-09T11:45:33.984Z,20.80
2023-10-09T11:48:22.654Z,20.80
2023-10-09T11:51:16.950Z,20.80
2023-10-09T11:53:47.386Z,20.80
2023-10-09T11:56:21.231Z,20.70
2023-10-09T11:58:51.254Z,20.80
2023-10-09T12:01:21.356Z,20.80
2023-10-09T12:03:51.345Z,20.80
2023-10-09T12:06:25.623Z,20.80
2023-10-09T12:08:55.176Z,20.80
2023-10-09T12:11:30.586Z,20.80
2023-10-09T12:13:58.982Z,20.70
2023-10-09T12:16:29.428Z,20.70
2023-10-09T12:18:57.031Z,20.70
2023-10-09T12:21:24.856Z,20.60
2023-10-09T12:23:52.077Z,20.60
2023-10-09T12:26:19.218Z,20.60
2023-10-09T12:28:50.950Z,20.60
2023-10-09T12:31:21.308Z,20.60
2023-10-09T12:33:48.855Z,20.60
2023-10-09T12:36:22.005Z,20.60
2023-10-09T12:38:53.861Z,20.60
2023-10-09T12:41:21.263Z,20.50
2023-10-09T12:43:48.868Z,20.50
2023-10-09T12:46:18.855Z,20.40
2023-10-09T12:48:49.307Z,20.50
2023-10-09T12:51:20.171Z,20.40
2023-10-09T12:53:49.892Z,20.40
2023-10-09T12:56:19.387Z,20.40
2023-10-09T12:58:54.598Z,20.40
2023-10-09T13:01:22.300Z,20.40
2023-10-09T13:03:50.644Z,20.40
2023-10-09T13:06:25.317Z,20.40
2023-10-09T13:08:53.102Z,20.40
2023-10-09T13:11:20.361Z,20.40
2023-10-09T13:13:53.865Z,20.40
2023-10-09T13:16:25.807Z,20.30
2023-10-09T13:18:57.779Z,20.30
2023-10-09T13:21:28.012Z,20.30
2023-10-09T13:23:58.957Z,20.30
2023-10-09T13:26:34.333Z,20.30
2023-10-09T13:29:03.927Z,20.30
2023-10-09T13:31:35.547Z,20.30
2023-10-09T13:34:04.719Z,20.30
2023-10-09T13:36:35.309Z,20.30
2023-10-09T13:39:25.144Z,20.30
2023-10-09T13:41:58.878Z,20.30
2023-10-09T13:44:30.180Z,20.20
2023-10-09T13:46:58.668Z,20.30
2023-10-09T13:49:31.411Z,20.20
2023-10-09T13:52:00.930Z,20.20
2023-10-09T13:54:34.173Z,20.30
2023-10-09T13:57:05.159Z,20.30
2023-10-09T13:59:33.224Z,20.30
2023-10-09T14:02:00.743Z,20.30
2023-10-09T14:04:27.834Z,20.20
2023-10-09T14:07:02.374Z,20.20
2023-10-09T14:09:32.574Z,20.20
2023-10-09T14:12:11.831Z,20.20
2023-10-09T14:14:50.363Z,20.20
2023-10-09T14:17:29.630Z,20.10
2023-10-09T14:20:17.680Z,20.10
2023-10-09T14:22:46.590Z,20.10
2023-10-09T14:25:16.380Z,20.10
2023-10-09T14:27:43.516Z,20.10
2023-10-09T14:30:13.763Z,20.00
2023-10-09T14:32:53.107Z,20.00
2023-10-09T14:35:22.820Z,19.90
2023-10-09T14:37:49.830Z,19.90
2023-10-09T14:40:22.438Z,19.90
2023-10-09T14:42:55.871Z,19.90
2023-10-09T14:45:28.532Z,19.90
2023-10-09T14:47:55.991Z,19.90
2023-10-09T14:50:23.375Z,19.90
2023-10-09T14:52:51.944Z,19.90
2023-10-09T14:55:22.120Z,19.90
2023-10-09T14:57:51.028Z,19.80
2023-10-09T15:00:24.189Z,19.80
2023-10-09T15:02:52.195Z,19.90
2023-10-09T15:05:19.290Z,19.80
2023-10-09T15:07:47.611Z,19.80
2023-10-09T15:10:17.097Z,19.90
2023-10-09T15:12:44.436Z,19.90
2023-10-09T15:15:15.149Z,19.80
2023-10-09T15:17:49.288Z,19.80
2023-10-09T15:20:18.084Z,19.80
2023-10-09T15:22:46.372Z,19.70
2023-10-09T15:25:18.673Z,19.70
2023-10-09T15:27:45.775Z,19.70
2023-10-09T15:30:18.682Z,19.70
2023-10-09T15:32:45.924Z,19.70
2023-10-09T15:35:14.709Z,19.60
2023-10-09T15:37:43.298Z,19.60
2023-10-09T15:40:19.306Z,19.50
2023-10-09T15:42:51.899Z,19.60
2023-10-09T15:45:24.326Z,19.60
2023-10-09T15:47:53.010Z,19.60
2023-10-09T15:50:24.125Z,19.60
2023-10-09T15:52:55.114Z,19.60
2023-10-09T15:55:25.619Z,19.50
2023-10-09T15:57:56.004Z,19.50
2023-10-09T16:00:29.499Z,19.50
2023-10-09T16:02:56.966Z,19.50
2023-10-09T16:05:26.987Z,19.50
2023-10-09T16:07:54.650Z,19.50
2023-10-09T16:10:22.916Z,19.50
2023-10-09T16:12:52.417Z,19.50
2023-10-09T16:15:20.133Z,19.50
2023-10-09T16:17:59.594Z,19.50
2023-10-09T16:20:27.295Z,19.50
2023-10-09T16:22:54.397Z,19.40
2023-10-09T16:25:25.251Z,19.40
2023-10-09T16:27:53.578Z,19.40
2023-10-09T16:30:24.295Z,19.30
2023-10-09T16:32:52.332Z,19.40
2023-10-09T16:35:23.179Z,19.30
2023-10-09T16:37:50.960Z,19.30
2023-10-09T16:40:21.552Z,19.30
2023-10-09T16:42:54.463Z,19.20
2023-10-09T16:45:21.985Z,19.20
2023-10-09T16:47:49.909Z,19.20
2023-10-09T16:50:17.247Z,19.20
2023-10-09T16:52:45.057Z,19.20
2023-10-09T16:55:13.025Z,19.20
2023-10-09T16:57:41.940Z,19.20
2023-10-09T17:00:36.393Z,19.10
2023-10-09T17:03:10.725Z,19.10
2023-10-09T17:05:52.541Z,19.00
2023-10-09T17:08:20.765Z,19.00
2023-10-09T17:10:52.185Z,19.00
2023-10-09T17:13:25.259Z,19.00
2023-10-09T17:15:55.031Z,18.90
2023-10-09T17:18:24.060Z,18.90
2023-10-09T17:20:50.980Z,18.90
2023-10-09T17:23:18.074Z,18.90
2023-10-09T17:25:47.750Z,18.80
2023-10-09T17:28:20.844Z,18.80
2023-10-09T17:30:50.579Z,18.80
2023-10-09T17:33:20.844Z,18.80
2023-10-09T17:35:48.357Z,18.80
2023-10-09T17:38:19.947Z,18.70
2023-10-09T17:40:54.213Z,18.70
2023-10-09T17:43:21.994Z,18.80
2023-10-09T17:45:53.912Z,18.70
2023-10-09T17:48:21.591Z,18.70
2023-10-09T17:50:48.968Z,18.80
2023-10-09T17:53:17.651Z,18.70
2023-10-09T17:55:45.630Z,18.70
2023-10-09T17:58:13.355Z,18.70
2023-10-09T18:00:42.250Z,18.70
2023-10-09T18:03:10.898Z,18.60
2023-10-09T18:05:39.943Z,18.60
2023-10-09T18:08:06.908Z,18.60
2023-10-09T18:10:35.374Z,18.60
2023-10-09T18:13:03.217Z,18.60
2023-10-09T18:15:30.853Z,18.50
2023-10-09T18:17:57.908Z,18.60
2023-10-09T18:20:24.821Z,18.60
2023-10-09T18:22:52.249Z,18.60
2023-10-09T18:25:19.710Z,18.60
2023-10-09T18:27:47.691Z,18.60
2023-10-09T18:30:14.761Z,18.50
2023-10-09T18:32:42.278Z,18.50
2023-10-09T18:35:11.096Z,18.60
2023-10-09T18:37:44.312Z,18.60
2023-10-09T18:40:13.198Z,18.50
2023-10-09T18:42:40.190Z,18.50
2023-10-09T18:45:10.041Z,18.50
2023-10-09T18:47:40.857Z,18.50
2023-10-09T18:50:17.405Z,18.50
2023-10-09T18:52:44.493Z,18.50
2023-10-09T18:55:15.231Z,18.50
2023-10-09T18:57:44.239Z,18.50
2023-10-09T19:00:13.632Z,18.50
2023-10-09T19:02:40.472Z,18.40
2023-10-09T19:05:09.228Z,18.40
2023-10-09T19:07:37.136Z,18.40
2023-10-09T19:10:07.861Z,18.40
2023-10-09T19:12:38.103Z,18.40
2023-10-09T19:15:08.016Z,18.40
2023-10-09T19:17:37.949Z,18.40
2023-10-09T19:20:08.459Z,18.40
2023-10-09T19:22:38.643Z,18.40
2023-10-09T19:25:17.472Z,18.30
2023-10-09T19:27:45.533Z,18.30
2023-10-09T19:30:17.649Z,18.30
2023-10-09T19:32:45.955Z,18.30
2023-10-09T19:35:16.598Z,18.30
2023-10-09T19:37:43.744Z,18.30
2023-10-09T19:40:13.064Z,18.20
2023-10-09T19:42:40.413Z,18.30
2023-10-09T19:45:10.875Z,18.20
2023-10-09T19:47:41.557Z,18.20
2023-10-09T19:50:14.634Z,18.20
2023-10-09T19:52:46.448Z,18.30
2023-10-09T19:55:13.957Z,18.30
2023-10-09T19:57:41.303Z,18.20
2023-10-09T20:00:15.906Z,18.20
2023-10-09T20:02:43.432Z,18.20
2023-10-09T20:05:10.706Z,18.20
2023-10-09T20:07:39.296Z,18.20
2023-10-09T20:10:08.052Z,18.20
2023-10-09T20:12:35.449Z,18.20
2023-10-09T20:15:02.735Z,18.20
2023-10-09T20:17:29.764Z,18.10
2023-10-09T20:19:57.936Z,18.10
2023-10-09T20:22:25.071Z,18.20
2023-10-09T20:24:52.094Z,18.10
2023-10-09T20:27:18.980Z,18.10
2023-10-09T20:29:47.780Z,18.00
2023-10-09T20:32:17.762Z,18.00
2023-10-09T20:34:45.433Z,18.00
2023-10-09T20:37:13.797Z,18.00
2023-10-09T20:39:41.943Z,18.00
2023-10-09T20:42:09.251Z,18.00
2023-10-09T20:44:36.592Z,17.90
2023-10-09T20:47:04.389Z,17.90
2023-10-09T20:49:33.028Z,17.90
2023-10-09T20:52:00.080Z,17.90
2023-10-09T20:54:26.986Z,17.90
2023-10-09T20:56:54.061Z,17.90
2023-10-09T20:59:21.068Z,17.90
2023-10-09T21:01:48.097Z,17.90
2023-10-09T21:04:15.205Z,17.90
2023-10-09T21:06:42.144Z,17.90
2023-10-09T21:09:09.863Z,17.90
2023-10-09T21:11:36.754Z,17.90
2023-10-09T21:14:05.764Z,17.90
2023-10-09T21:16:33.203Z,17.90
2023-10-09T21:19:00.226Z,17.90
2023-10-09T21:21:30.876Z,17.90
2023-10-09T21:23:58.615Z,17.80
2023-10-09T21:26:27.280Z,17.90
2023-10-09T21:28:54.488Z,17.80
2023-10-09T21:31:23.733Z,17.80
2023-10-09T21:33:51.504Z,17.80
2023-10-09T21:36:19.164Z,17.80
2023-10-09T21:38:46.119Z,17.80
2023-10-09T21:41:17.887Z,17.80
2023-10-09T21:43:45.792Z,17.80
2023-10-09T21:46:13.390Z,17.70
2023-10-09T21:48:43.798Z,17.80
2023-10-09T21:51:11.878Z,17.70
2023-10-09T21:53:40.864Z,17.70
2023-10-09T21:56:10.655Z,17.70
2023-10-09T21:58:38.318Z,17.60
2023-10-09T22:01:08.938Z,17.50
2023-10-09T22:03:41.275Z,17.50
2023-10-09T22:06:08.525Z,17.40
2023-10-09T22:08:35.461Z,17.30
2023-10-09T22:11:03.045Z,17.30
2023-10-09T22:13:30.386Z,17.20
2023-10-09T22:15:58.782Z,17.20
2023-10-09T22:18:25.967Z,17.10
2023-10-09T22:20:58.486Z,17.00
2023-10-09T22:23:33.282Z,17.00
2023-10-09T22:26:05.113Z,16.90
2023-10-09T22:28:35.276Z,16.90
2023-10-09T22:31:05.306Z,16.80
2023-10-09T22:33:58.904Z,16.80
2023-10-09T22:36:46.380Z,16.70
2023-10-09T22:39:22.654Z,16.60
2023-10-09T22:41:56.006Z,16.60
2023-10-09T22:44:25.994Z,16.50
2023-10-09T22:46:53.532Z,16.50
2023-10-09T22:49:20.500Z,16.40
2023-10-09T22:51:53.333Z,16.50
2023-10-09T22:54:36.734Z,16.50
2023-10-09T22:57:06.766Z,16.60
2023-10-09T22:59:45.099Z,16.60
2023-10-09T23:02:23.610Z,16.60
2023-10-09T23:05:04.775Z,16.70
2023-10-09T23:07:33.186Z,16.60
2023-10-09T23:10:16.162Z,16.60
2023-10-09T23:12:50.000Z,16.60
2023-10-09T23:15:34.002Z,16.60
2023-10-09T23:18:10.772Z,16.60
2023-10-09T23:21:09.983Z,16.50
2023-10-09T23:23:41.917Z,16.40
2023-10-09T23:26:22.844Z,16.40
2023-10-09T23:28:53.367Z,16.30
2023-10-09T23:31:27.309Z,16.30
2023-10-09T23:33:58.250Z,16.30
2023-10-09T23:36:32.631Z,16.30
2023-10-09T23:39:16.582Z,16.40
2023-10-09T23:41:59.780Z,16.50
2023-10-09T23:44:35.419Z,16.50
2023-10-09T23:47:10.419Z,16.60
2023-10-09T23:49:45.316Z,16.60
2023-10-09T23:52:15.074Z,16.60
2023-10-09T23:54:48.943Z,16.60
2023-10-09T23:57:19.484Z,16.50
2023-10-09T23:59:54.857Z,16.50
